createdAt,value
2022-09-23T00:00:43.479Z,56.40
2022-09-23T00:03:45.555Z,56.98
2022-09-23T00:06:47.442Z,56.74
2022-09-23T00:09:50.384Z,56.11
2022-09-23T00:12:52.248Z,58.47
2022-09-23T00:15:54.094Z,60.09
2022-09-23T00:18:55.921Z,61.11
2022-09-23T00:21:57.706Z,59.76
2022-09-23T00:24:59.545Z,60.08
2022-09-23T00:28:01.836Z,62.48
2022-09-23T00:31:08.055Z,64.03
2022-09-23T00:34:10.438Z,64.45
2022-09-23T00:37:12.781Z,64.48
2022-09-23T00:40:14.719Z,64.78
2022-09-23T00:43:17.287Z,63.01
2022-09-23T00:46:38.964Z,64.72
2022-09-23T00:49:40.779Z,64.00
2022-09-23T00:52:42.581Z,64.59
2022-09-23T00:55:54.972Z,65.36
2022-09-23T00:58:56.792Z,63.61
2022-09-23T01:01:59.234Z,62.61
2022-09-23T01:05:01.719Z,62.94
2022-09-23T01:08:03.480Z,64.07
2022-09-23T01:11:09.398Z,61.88
2022-09-23T01:14:20.725Z,62.25
2022-09-23T01:17:22.458Z,64.58
2022-09-23T01:20:24.783Z,66.31
2022-09-23T01:23:26.514Z,66.56
2022-09-23T01:26:47.118Z,63.83
2022-09-23T01:29:48.936Z,64.66
2022-09-23T01:33:23.072Z,64.68
2022-09-23T01:36:27.706Z,66.58
2022-09-23T01:39:39.298Z,65.98
2022-09-23T01:42:46.403Z,65.51
2022-09-23T01:45:48.381Z,66.94
2022-09-23T01:48:52.024Z,64.32
2022-09-23T01:52:16.070Z,61.53
2022-09-23T01:55:19.207Z,63.32
2022-09-23T01:58:28.584Z,65.89
2022-09-23T02:01:36.265Z,64.65
2022-09-23T02:04:40.801Z,62.04
2022-09-23T02:07:44.114Z,63.19
2022-09-23T02:10:49.677Z,65.48
2022-09-23T02:14:11.518Z,63.38
2022-09-23T02:17:14.182Z,61.58
2022-09-23T02:20:16.333Z,60.13
2022-09-23T02:23:23.213Z,64.38
2022-09-23T02:26:29.649Z,63.37
2022-09-23T02:29:50.246Z,65.13
2022-09-23T02:32:54.271Z,64.31
2022-09-23T02:35:58.654Z,64.34
2022-09-23T02:39:01.863Z,63.62
2022-09-23T02:42:07.779Z,62.04
2022-09-23T02:45:09.564Z,62.88
2022-09-23T02:48:16.740Z,62.37
2022-09-23T02:51:18.950Z,61.27
2022-09-23T02:54:22.407Z,63.91
2022-09-23T02:57:24.203Z,62.61
2022-09-23T03:00:26.073Z,62.28
2022-09-23T03:03:46.725Z,63.42
2022-09-23T03:07:02.074Z,65.51
2022-09-23T03:10:06.113Z,65.32
2022-09-23T03:13:07.854Z,65.86
2022-09-23T03:16:16.231Z,64.64
2022-09-23T03:19:18.021Z,66.39
2022-09-23T03:22:46.116Z,66.06
2022-09-23T03:25:48.422Z,68.79
2022-09-23T03:28:50.416Z,65.99
2022-09-23T03:31:52.977Z,64.15
2022-09-23T03:34:55.433Z,64.65
2022-09-23T03:37:58.866Z,65.27
2022-09-23T03:41:02.919Z,62.40
2022-09-23T03:44:04.702Z,61.75
2022-09-23T03:47:06.617Z,63.49
2022-09-23T03:50:08.589Z,65.66
2022-09-23T03:53:13.842Z,67.39
2022-09-23T03:56:15.724Z,65.58
2022-09-23T03:59:17.517Z,62.79
2022-09-23T04:02:19.884Z,62.08
2022-09-23T04:05:21.852Z,64.48
2022-09-23T04:08:23.718Z,65.27
2022-09-23T04:11:25.537Z,65.31
2022-09-23T04:14:27.358Z,67.36
2022-09-23T04:17:29.158Z,69.11
2022-09-23T04:20:30.971Z,67.00
2022-09-23T04:23:32.877Z,67.32
2022-09-23T04:26:34.757Z,68.44
2022-09-23T04:29:36.567Z,67.47
2022-09-23T04:32:38.356Z,67.29
2022-09-23T04:35:40.635Z,64.06
2022-09-23T04:38:46.564Z,62.43
2022-09-23T04:41:48.361Z,62.42
2022-09-23T04:44:50.174Z,62.41
2022-09-23T04:47:52.104Z,62.42
2022-09-23T04:50:53.933Z,61.75
2022-09-23T04:53:55.755Z,61.72
2022-09-23T04:56:57.591Z,62.02
2022-09-23T04:59:59.748Z,64.94
2022-09-23T05:03:01.554Z,66.31
2022-09-23T05:06:03.490Z,64.09
2022-09-23T05:09:07.529Z,65.54
2022-09-23T05:12:09.381Z,63.75
2022-09-23T05:15:13.096Z,63.03
2022-09-23T05:18:17.912Z,62.02
2022-09-23T05:21:23.484Z,64.59
2022-09-23T05:24:25.409Z,64.80
2022-09-23T05:27:27.292Z,62.52
2022-09-23T05:30:29.086Z,61.44
2022-09-23T05:33:31.529Z,55.06
2022-09-23T05:36:37.973Z,54.69
2022-09-23T05:39:40.362Z,51.83
2022-09-23T05:42:42.312Z,53.53
2022-09-23T05:45:44.156Z,51.87
2022-09-23T05:48:49.493Z,48.42
2022-09-23T05:51:51.325Z,48.10
2022-09-23T05:54:54.892Z,46.80
2022-09-23T05:57:56.788Z,51.25
2022-09-23T06:00:58.877Z,49.48
2022-09-23T06:04:01.194Z,47.97
2022-09-23T06:07:03.677Z,45.39
2022-09-23T06:10:06.759Z,48.34
2022-09-23T06:13:08.898Z,44.86
2022-09-23T06:16:11.803Z,42.31
2022-09-23T06:19:13.679Z,44.14
2022-09-23T06:22:17.955Z,43.20
2022-09-23T06:25:20.828Z,43.97
2022-09-23T06:28:22.734Z,44.58
2022-09-23T06:31:24.684Z,45.09
2022-09-23T06:34:26.573Z,46.57
2022-09-23T06:37:28.545Z,45.38
2022-09-23T06:40:31.409Z,46.08
2022-09-23T06:43:33.385Z,45.51
2022-09-23T06:46:37.004Z,41.16
2022-09-23T06:49:38.906Z,37.85
2022-09-23T06:52:41.273Z,43.34
2022-09-23T06:55:43.291Z,39.90
2022-09-23T06:58:45.109Z,38.98
2022-09-23T07:01:48.404Z,40.88
2022-09-23T07:04:51.328Z,40.29
2022-09-23T07:07:53.439Z,37.26
2022-09-23T07:10:55.913Z,40.77
2022-09-23T07:13:57.818Z,40.52
2022-09-23T07:17:00.018Z,39.13
2022-09-23T07:20:02.180Z,40.37
2022-09-23T07:23:04.197Z,34.54
2022-09-23T07:26:07.878Z,35.59
2022-09-23T07:29:11.992Z,39.84
2022-09-23T07:32:16.092Z,37.24
2022-09-23T07:35:18.179Z,36.02
2022-09-23T07:38:20.203Z,38.38
2022-09-23T07:41:24.761Z,38.75
2022-09-23T07:44:27.062Z,35.92
2022-09-23T07:47:29.093Z,36.69
2022-09-23T07:50:31.315Z,34.47
2022-09-23T07:53:33.446Z,33.67
2022-09-23T07:56:35.995Z,34.67
2022-09-23T07:59:38.425Z,42.24
2022-09-23T08:02:40.961Z,43.53
2022-09-23T08:05:42.979Z,43.17
2022-09-23T08:08:45.619Z,44.61
2022-09-23T08:11:49.415Z,45.07
2022-09-23T08:14:51.485Z,45.03
2022-09-23T08:17:53.274Z,45.78
2022-09-23T08:20:55.262Z,46.67
2022-09-23T08:23:57.081Z,47.16
2022-09-23T08:26:59.093Z,46.66
2022-09-23T08:30:00.897Z,47.19
2022-09-23T08:33:02.890Z,46.20
2022-09-23T08:36:04.868Z,45.55
2022-09-23T08:39:06.841Z,47.11
2022-09-23T08:42:16.998Z,48.35
2022-09-23T08:45:24.886Z,48.27
2022-09-23T08:48:33.244Z,46.76
2022-09-23T08:51:44.338Z,45.38
2022-09-23T08:54:46.241Z,48.22
2022-09-23T08:58:23.573Z,46.39
2022-09-23T09:01:43.815Z,46.53
2022-09-23T09:04:50.674Z,46.55
2022-09-23T09:07:52.503Z,45.52
2022-09-23T09:10:54.574Z,43.31
2022-09-23T09:14:19.569Z,36.82
2022-09-23T09:17:33.028Z,34.74
2022-09-23T09:20:49.596Z,32.11
2022-09-23T09:23:55.945Z,34.75
2022-09-23T09:26:57.891Z,32.29
2022-09-23T09:30:01.301Z,32.75
2022-09-23T09:33:07.627Z,27.97
2022-09-23T09:36:09.691Z,27.22
2022-09-23T09:39:12.208Z,31.89
2022-09-23T09:42:17.415Z,27.77
2022-09-23T09:45:20.008Z,25.99
2022-09-23T09:48:23.692Z,30.16
2022-09-23T09:51:27.819Z,32.51
2022-09-23T09:54:31.423Z,27.59
2022-09-23T09:57:39.593Z,27.12
2022-09-23T10:00:43.213Z,24.53
2022-09-23T10:03:45.015Z,27.03
2022-09-23T10:07:07.203Z,27.15
2022-09-23T10:10:32.571Z,27.82
2022-09-23T10:13:35.156Z,23.61
2022-09-23T10:16:37.246Z,25.37
2022-09-23T10:19:39.176Z,29.88
2022-09-23T10:22:42.928Z,29.80
2022-09-23T10:25:45.262Z,25.68
2022-09-23T10:28:47.138Z,24.02
2022-09-23T10:31:52.808Z,29.39
2022-09-23T10:35:14.957Z,25.36
2022-09-23T10:38:16.923Z,27.46
2022-09-23T10:41:45.115Z,27.69
2022-09-23T10:45:11.935Z,30.52
2022-09-23T10:48:19.850Z,31.10
2022-09-23T10:51:33.674Z,35.25
2022-09-23T10:54:50.932Z,38.31
2022-09-23T10:58:11.654Z,38.49
2022-09-23T11:01:16.552Z,38.48
2022-09-23T11:04:18.773Z,37.28
2022-09-23T11:07:37.934Z,39.80
2022-09-23T11:10:49.787Z,37.81
2022-09-23T11:14:16.957Z,33.49
2022-09-23T11:17:34.777Z,32.98
2022-09-23T11:21:00.037Z,33.32
2022-09-23T11:24:20.851Z,32.36
2022-09-23T11:27:27.562Z,33.62
2022-09-23T11:30:49.201Z,35.04
2022-09-23T11:34:03.761Z,32.93
2022-09-23T11:37:05.856Z,33.41
2022-09-23T11:40:13.970Z,34.81
2022-09-23T11:43:19.874Z,33.05
2022-09-23T11:46:48.086Z,32.93
2022-09-23T11:49:49.865Z,32.62
2022-09-23T11:52:53.241Z,33.26
2022-09-23T11:56:24.872Z,33.92
2022-09-23T11:59:40.682Z,31.94
2022-09-23T12:03:00.314Z,31.27
2022-09-23T12:06:12.636Z,30.67
2022-09-23T12:09:15.897Z,30.49
2022-09-23T12:12:21.967Z,31.63
2022-09-23T12:15:45.890Z,33.95
2022-09-23T12:18:54.249Z,34.12
2022-09-23T12:22:08.369Z,32.09
2022-09-23T12:25:28.809Z,31.85
2022-09-23T12:28:31.316Z,30.44
2022-09-23T12:31:37.605Z,31.07
2022-09-23T12:34:48.934Z,33.18
2022-09-23T12:37:50.975Z,33.36
2022-09-23T12:40:53.763Z,30.25
2022-09-23T12:44:00.470Z,31.74
2022-09-23T12:47:14.257Z,31.55
2022-09-23T12:50:35.007Z,26.48
2022-09-23T12:53:51.214Z,27.30
2022-09-23T12:56:56.090Z,29.30
2022-09-23T12:59:59.298Z,26.80
2022-09-23T13:03:19.515Z,27.56
2022-09-23T13:06:39.399Z,26.81
2022-09-23T13:09:41.646Z,23.97
2022-09-23T13:12:43.577Z,22.52
2022-09-23T13:15:45.957Z,26.10
2022-09-23T13:18:50.132Z,27.54
2022-09-23T13:21:59.897Z,26.74
2022-09-23T13:25:01.739Z,29.12
2022-09-23T13:28:04.011Z,29.91
2022-09-23T13:31:06.480Z,30.36
2022-09-23T13:34:08.328Z,32.55
2022-09-23T13:37:23.470Z,30.51
2022-09-23T13:40:26.738Z,31.70
2022-09-23T13:43:31.830Z,33.75
2022-09-23T13:46:44.101Z,33.35
2022-09-23T13:49:48.099Z,33.35
2022-09-23T13:53:14.294Z,34.60
2022-09-23T13:56:16.102Z,34.57
2022-09-23T13:59:27.969Z,34.46
2022-09-23T14:02:29.898Z,32.14
2022-09-23T14:05:33.517Z,33.15
2022-09-23T14:08:35.798Z,34.55
2022-09-23T14:11:37.773Z,33.01
2022-09-23T14:14:40.429Z,33.33
2022-09-23T14:17:45.737Z,31.80
2022-09-23T14:20:48.251Z,32.08
2022-09-23T14:23:50.054Z,33.09
2022-09-23T14:26:55.888Z,32.55
2022-09-23T14:29:57.787Z,33.79
2022-09-23T14:33:00.086Z,34.17
2022-09-23T14:36:06.689Z,35.68
2022-09-23T14:39:09.479Z,35.35
2022-09-23T14:42:12.450Z,34.74
2022-09-23T14:45:15.935Z,35.08
2022-09-23T14:48:19.321Z,32.74
2022-09-23T14:51:21.202Z,35.13
2022-09-23T14:54:36.462Z,34.18
2022-09-23T14:57:38.586Z,33.59
2022-09-23T15:00:40.400Z,33.03
2022-09-23T15:03:48.303Z,33.86
2022-09-23T15:06:54.288Z,33.02
2022-09-23T15:09:56.096Z,31.68
2022-09-23T15:13:24.203Z,32.32
2022-09-23T15:16:27.004Z,32.55
2022-09-23T15:19:29.006Z,34.55
2022-09-23T15:22:30.876Z,32.78
2022-09-23T15:25:40.152Z,34.23
2022-09-23T15:28:42.520Z,34.20
2022-09-23T15:31:44.397Z,32.23
2022-09-23T15:34:48.306Z,34.24
2022-09-23T15:37:50.368Z,33.07
2022-09-23T15:40:52.319Z,31.92
2022-09-23T15:43:56.390Z,33.40
2022-09-23T15:47:01.203Z,32.03
2022-09-23T15:50:03.203Z,33.04
2022-09-23T15:53:06.069Z,33.01
2022-09-23T15:56:07.859Z,33.63
2022-09-23T15:59:10.136Z,33.63
2022-09-23T16:02:18.114Z,34.40
2022-09-23T16:05:25.053Z,33.55
2022-09-23T16:08:27.358Z,34.25
2022-09-23T16:11:31.781Z,34.24
2022-09-23T16:14:33.681Z,34.56
2022-09-23T16:17:37.687Z,34.89
2022-09-23T16:20:41.926Z,33.63
2022-09-23T16:23:47.243Z,33.37
2022-09-23T16:26:49.075Z,33.29
2022-09-23T16:29:50.914Z,35.07
2022-09-23T16:32:52.917Z,34.45
2022-09-23T16:35:55.022Z,33.83
2022-09-23T16:38:57.170Z,36.08
2022-09-23T16:41:59.041Z,34.98
2022-09-23T16:45:00.906Z,36.80
2022-09-23T16:48:02.835Z,36.38
2022-09-23T16:51:04.971Z,35.44
2022-09-23T16:54:10.362Z,35.83
2022-09-23T16:57:13.276Z,37.25
2022-09-23T17:00:33.871Z,35.48
2022-09-23T17:03:41.670Z,36.77
2022-09-23T17:06:49.077Z,37.46
2022-09-23T17:09:50.979Z,37.48
2022-09-23T17:12:54.552Z,36.35
2022-09-23T17:15:56.522Z,38.34
2022-09-23T17:18:58.589Z,36.46
2022-09-23T17:22:00.435Z,35.44
2022-09-23T17:25:03.785Z,36.00
2022-09-23T17:28:05.583Z,36.10
2022-09-23T17:31:07.613Z,36.42
2022-09-23T17:34:09.622Z,38.04
2022-09-23T17:37:11.445Z,38.30
2022-09-23T17:40:13.727Z,37.73
2022-09-23T17:43:15.916Z,37.91
2022-09-23T17:46:20.793Z,37.02
2022-09-23T17:49:24.185Z,37.74
2022-09-23T17:52:26.062Z,37.71
2022-09-23T17:55:27.939Z,38.35
2022-09-23T17:58:30.899Z,38.87
2022-09-23T18:01:32.765Z,39.79
2022-09-23T18:04:34.615Z,39.95
2022-09-23T18:07:36.436Z,39.73
2022-09-23T18:10:38.306Z,39.79
2022-09-23T18:13:40.125Z,40.05
2022-09-23T18:16:42.693Z,41.05
2022-09-23T18:19:49.091Z,41.76
2022-09-23T18:22:50.916Z,42.29
2022-09-23T18:25:52.721Z,42.06
2022-09-23T18:28:57.217Z,42.08
2022-09-23T18:31:59.424Z,43.13
2022-09-23T18:35:01.367Z,43.29
2022-09-23T18:38:03.267Z,42.77
2022-09-23T18:41:05.256Z,42.89
2022-09-23T18:44:07.271Z,44.09
2022-09-23T18:47:29.077Z,45.86
2022-09-23T18:50:40.278Z,44.69
2022-09-23T18:53:42.876Z,46.44
2022-09-23T18:56:44.751Z,46.29
2022-09-23T18:59:47.474Z,46.51
2022-09-23T19:02:49.271Z,45.78
2022-09-23T19:05:51.364Z,47.29
2022-09-23T19:08:53.724Z,46.51
2022-09-23T19:11:55.661Z,48.22
2022-09-23T19:14:57.492Z,47.34
2022-09-23T19:17:59.322Z,46.62
2022-09-23T19:21:04.914Z,48.14
2022-09-23T19:24:08.966Z,48.77
2022-09-23T19:27:10.828Z,49.41
2022-09-23T19:30:13.517Z,49.27
2022-09-23T19:33:15.437Z,47.68
2022-09-23T19:36:17.248Z,47.32
2022-09-23T19:39:23.351Z,46.99
2022-09-23T19:42:27.634Z,47.35
2022-09-23T19:45:30.181Z,48.22
2022-09-23T19:48:32.013Z,48.08
2022-09-23T19:51:34.449Z,50.36
2022-09-23T19:54:36.297Z,49.92
2022-09-23T19:57:38.132Z,51.05
2022-09-23T20:00:40.206Z,50.75
2022-09-23T20:03:45.313Z,49.92
2022-09-23T20:06:49.683Z,50.20
2022-09-23T20:09:51.588Z,52.83
2022-09-23T20:12:53.601Z,52.20
2022-09-23T20:15:55.481Z,53.09
2022-09-23T20:18:57.541Z,52.58
2022-09-23T20:22:18.101Z,54.39
2022-09-23T20:25:19.899Z,55.14
2022-09-23T20:28:22.368Z,53.97
2022-09-23T20:31:25.103Z,53.01
2022-09-23T20:34:29.876Z,53.40
2022-09-23T20:37:33.014Z,53.49
2022-09-23T20:40:35.537Z,53.82
2022-09-23T20:43:37.400Z,53.75
2022-09-23T20:46:41.880Z,53.31
2022-09-23T20:49:46.219Z,53.03
2022-09-23T20:52:48.026Z,52.82
2022-09-23T20:55:50.453Z,52.17
2022-09-23T20:58:54.062Z,53.90
2022-09-23T21:01:58.212Z,54.02
2022-09-23T21:05:00.304Z,52.63
2022-09-23T21:08:03.237Z,52.99
2022-09-23T21:11:06.156Z,51.80
2022-09-23T21:14:08.223Z,52.60
2022-09-23T21:17:10.161Z,54.02
2022-09-23T21:20:12.020Z,56.26
2022-09-23T21:23:13.798Z,55.01
2022-09-23T21:26:18.634Z,53.07
2022-09-23T21:29:20.467Z,54.39
2022-09-23T21:32:22.876Z,52.85
2022-09-23T21:35:24.667Z,53.64
2022-09-23T21:38:26.507Z,53.67
2022-09-23T21:41:28.443Z,53.93
2022-09-23T21:44:30.246Z,53.76
2022-09-23T21:47:32.455Z,53.35
2022-09-23T21:50:37.175Z,54.94
2022-09-23T21:53:39.635Z,55.15
2022-09-23T21:56:41.480Z,55.99
2022-09-23T21:59:43.301Z,53.33
2022-09-23T22:02:45.081Z,52.25
2022-09-23T22:05:46.899Z,53.84
2022-09-23T22:08:49.708Z,54.40
2022-09-23T22:12:11.650Z,54.82
2022-09-23T22:15:13.518Z,53.64
2022-09-23T22:18:15.488Z,54.85
2022-09-23T22:21:17.379Z,55.57
2022-09-23T22:24:19.485Z,54.03
2022-09-23T22:27:21.351Z,54.37
2022-09-23T22:30:41.899Z,57.31
2022-09-23T22:33:44.071Z,57.66
2022-09-23T22:36:46.378Z,56.33
2022-09-23T22:39:48.284Z,54.08
2022-09-23T22:42:50.104Z,53.73
2022-09-23T22:45:52.115Z,53.99
2022-09-23T22:48:53.971Z,54.55
2022-09-23T22:51:55.762Z,54.87
2022-09-23T22:54:57.579Z,54.36
2022-09-23T22:58:15.280Z,54.13
2022-09-23T23:01:21.191Z,53.63
2022-09-23T23:04:23.091Z,54.08
2022-09-23T23:07:25.011Z,54.84
2022-09-23T23:10:27.274Z,54.24
2022-09-23T23:13:34.003Z,53.26
2022-09-23T23:16:36.164Z,53.73
2022-09-23T23:19:38.089Z,53.55
2022-09-23T23:22:39.902Z,54.77
2022-09-23T23:25:41.689Z,54.81
2022-09-23T23:28:44.534Z,55.01
2022-09-23T23:31:46.456Z,56.49
2022-09-23T23:34:48.281Z,56.61
2022-09-23T23:37:50.078Z,56.20
2022-09-23T23:40:52.692Z,55.82
2022-09-23T23:43:55.340Z,56.11
2022-09-23T23:46:57.186Z,57.21
2022-09-23T23:49:59.148Z,56.48
2022-09-23T23:53:00.991Z,57.21
2022-09-23T23:56:06.814Z,59.62
2022-09-23T23:59:08.613Z,58.88
